createdAt,value
2022-07-27T00:01:15.641Z,85.40
2022-07-27T00:03:43.821Z,86.00
2022-07-27T00:06:10.842Z,86.40
2022-07-27T00:08:37.674Z,86.40
2022-07-27T00:11:04.810Z,86.30
2022-07-27T00:13:31.880Z,86.30
2022-07-27T00:15:58.721Z,86.70
2022-07-27T00:18:25.579Z,87.10
2022-07-27T00:20:52.341Z,87.20
2022-07-27T00:23:19.269Z,87.50
2022-07-27T00:25:46.006Z,87.70
2022-07-27T00:28:12.863Z,87.90
2022-07-27T00:30:39.633Z,88.10
2022-07-27T00:33:06.563Z,88.30
2022-07-27T00:35:33.309Z,88.20
2022-07-27T00:38:02.775Z,88.30
2022-07-27T00:40:29.593Z,88.20
2022-07-27T00:42:56.513Z,88.00
2022-07-27T00:45:23.613Z,88.10
2022-07-27T00:47:54.783Z,87.80
2022-07-27T00:50:21.955Z,88.00
2022-07-27T00:52:48.807Z,87.30
2022-07-27T00:55:16.095Z,87.40
2022-07-27T00:57:58.627Z,87.70
2022-07-27T01:00:27.281Z,87.50
2022-07-27T01:02:54.726Z,87.30
2022-07-27T01:05:24.488Z,88.10
2022-07-27T01:08:03.552Z,87.50
2022-07-27T01:10:30.369Z,87.80
2022-07-27T01:12:57.259Z,87.90
2022-07-27T01:15:24.134Z,88.00
2022-07-27T01:17:50.922Z,88.00
2022-07-27T01:20:17.743Z,88.20
2022-07-27T01:22:44.471Z,87.40
2022-07-27T01:25:11.631Z,87.10
2022-07-27T01:27:38.452Z,87.80
2022-07-27T01:30:25.624Z,88.10
2022-07-27T01:32:59.105Z,88.10
2022-07-27T01:35:25.983Z,87.80
2022-07-27T01:37:52.755Z,87.60
2022-07-27T01:40:19.493Z,87.50
2022-07-27T01:42:46.302Z,87.70
2022-07-27T01:45:13.157Z,88.10
2022-07-27T01:47:39.914Z,88.30
2022-07-27T01:50:06.986Z,88.70
2022-07-27T01:52:33.962Z,88.90
2022-07-27T01:55:00.800Z,89.10
2022-07-27T01:57:27.644Z,88.70
2022-07-27T01:59:54.449Z,88.90
2022-07-27T02:02:21.355Z,88.80
2022-07-27T02:04:48.133Z,89.10
2022-07-27T02:07:15.000Z,89.00
2022-07-27T02:09:41.790Z,89.70
2022-07-27T02:12:27.410Z,89.50
2022-07-27T02:14:54.748Z,89.40
2022-07-27T02:17:22.726Z,89.40
2022-07-27T02:19:49.477Z,90.00
2022-07-27T02:22:17.145Z,90.10
2022-07-27T02:24:44.142Z,90.20
2022-07-27T02:27:11.000Z,90.40
2022-07-27T02:29:37.773Z,90.50
2022-07-27T02:32:04.760Z,90.60
2022-07-27T02:34:31.705Z,90.60
2022-07-27T02:36:58.503Z,90.60
2022-07-27T02:39:25.250Z,90.60
2022-07-27T02:41:52.109Z,90.60
2022-07-27T02:44:20.261Z,90.70
2022-07-27T02:46:47.104Z,90.80
2022-07-27T02:49:14.436Z,91.20
2022-07-27T02:51:41.688Z,91.30
2022-07-27T02:54:10.063Z,91.40
2022-07-27T02:56:36.797Z,91.10
2022-07-27T02:59:03.588Z,91.40
2022-07-27T03:01:30.680Z,91.50
2022-07-27T03:03:57.491Z,91.40
2022-07-27T03:06:24.552Z,91.30
2022-07-27T03:08:51.368Z,91.50
2022-07-27T03:11:18.303Z,91.40
2022-07-27T03:13:45.253Z,91.30
2022-07-27T03:16:12.282Z,91.40
2022-07-27T03:18:39.148Z,91.40
2022-07-27T03:21:06.791Z,91.50
2022-07-27T03:23:35.172Z,91.60
2022-07-27T03:26:01.949Z,91.70
2022-07-27T03:28:28.814Z,92.00
2022-07-27T03:30:55.627Z,92.20
2022-07-27T03:33:22.445Z,92.30
2022-07-27T03:35:49.336Z,92.40
2022-07-27T03:38:16.102Z,92.50
2022-07-27T03:40:45.300Z,92.20
2022-07-27T03:43:12.081Z,92.10
2022-07-27T03:45:38.953Z,92.50
2022-07-27T03:48:05.920Z,92.40
2022-07-27T03:50:32.709Z,92.30
2022-07-27T03:52:59.531Z,92.40
2022-07-27T03:55:26.326Z,92.40
2022-07-27T03:57:53.345Z,92.60
2022-07-27T04:00:20.388Z,92.70
2022-07-27T04:02:47.295Z,92.90
2022-07-27T04:05:14.221Z,93.00
2022-07-27T04:07:41.007Z,93.10
2022-07-27T04:10:08.467Z,93.10
2022-07-27T04:12:38.864Z,93.20
2022-07-27T04:15:06.662Z,93.30
2022-07-27T04:17:56.297Z,93.20
2022-07-27T04:20:20.462Z,93.30
2022-07-27T04:22:48.371Z,93.50
2022-07-27T04:25:15.234Z,93.60
2022-07-27T04:27:42.068Z,93.70
2022-07-27T04:30:09.795Z,93.90
2022-07-27T04:32:36.847Z,93.70
2022-07-27T04:35:03.709Z,93.60
2022-07-27T04:37:32.025Z,93.60
2022-07-27T04:39:59.076Z,93.80
2022-07-27T04:42:25.989Z,94.20
2022-07-27T04:44:52.778Z,94.30
2022-07-27T04:47:19.785Z,94.50
2022-07-27T04:49:46.598Z,94.60
2022-07-27T04:52:16.940Z,94.70
2022-07-27T04:54:50.984Z,94.50
2022-07-27T04:57:17.764Z,94.50
2022-07-27T04:59:44.542Z,94.60
2022-07-27T05:02:11.399Z,94.60
2022-07-27T05:04:38.216Z,94.70
2022-07-27T05:07:05.330Z,94.60
2022-07-27T05:09:32.194Z,94.30
2022-07-27T05:11:59.036Z,94.10
2022-07-27T05:14:26.137Z,93.60
2022-07-27T05:16:53.009Z,93.70
2022-07-27T05:19:20.317Z,93.50
2022-07-27T05:21:47.238Z,93.60
2022-07-27T05:24:14.001Z,93.50
2022-07-27T05:26:40.849Z,93.60
2022-07-27T05:29:07.579Z,93.80
2022-07-27T05:31:34.572Z,93.40
2022-07-27T05:34:01.613Z,93.30
2022-07-27T05:36:28.734Z,93.00
2022-07-27T05:38:55.471Z,93.10
2022-07-27T05:41:26.293Z,93.20
2022-07-27T05:43:54.464Z,93.10
2022-07-27T05:46:21.728Z,93.10
2022-07-27T05:48:48.773Z,92.90
2022-07-27T05:51:15.659Z,92.70
2022-07-27T05:53:42.449Z,92.50
2022-07-27T05:56:09.232Z,92.40
2022-07-27T05:58:36.141Z,92.00
2022-07-27T06:01:02.990Z,92.30
2022-07-27T06:03:29.942Z,92.30
2022-07-27T06:06:16.814Z,92.20
2022-07-27T06:08:44.728Z,91.70
2022-07-27T06:11:11.586Z,91.50
2022-07-27T06:13:41.945Z,91.40
2022-07-27T06:16:09.785Z,91.50
2022-07-27T06:18:38.686Z,91.40
2022-07-27T06:21:05.535Z,91.40
2022-07-27T06:23:32.346Z,91.50
2022-07-27T06:26:00.245Z,91.40
2022-07-27T06:28:27.049Z,91.20
2022-07-27T06:30:53.976Z,91.20
2022-07-27T06:33:31.704Z,91.20
2022-07-27T06:35:59.288Z,91.30
2022-07-27T06:38:26.813Z,91.50
2022-07-27T06:40:53.894Z,90.80
2022-07-27T06:43:21.501Z,90.40
2022-07-27T06:45:48.503Z,90.50
2022-07-27T06:48:15.529Z,90.60
2022-07-27T06:50:42.703Z,90.70
2022-07-27T06:53:09.492Z,90.40
2022-07-27T06:55:36.236Z,89.20
2022-07-27T06:58:03.519Z,88.40
2022-07-27T07:00:30.343Z,88.60
2022-07-27T07:03:02.976Z,89.20
2022-07-27T07:05:30.347Z,89.40
2022-07-27T07:07:57.600Z,89.30
2022-07-27T07:10:26.825Z,88.30
2022-07-27T07:12:56.085Z,87.60
2022-07-27T07:15:24.226Z,87.80
2022-07-27T07:17:51.024Z,88.30
2022-07-27T07:20:17.882Z,88.70
2022-07-27T07:22:44.756Z,88.30
2022-07-27T07:25:11.875Z,87.80
2022-07-27T07:27:38.704Z,87.60
2022-07-27T07:30:05.696Z,87.30
2022-07-27T07:32:33.719Z,86.80
2022-07-27T07:35:01.467Z,86.20
2022-07-27T07:37:31.753Z,87.30
2022-07-27T07:40:13.088Z,86.60
2022-07-27T07:42:54.828Z,86.00
2022-07-27T07:45:22.073Z,86.80
2022-07-27T07:47:49.566Z,86.30
2022-07-27T07:50:16.856Z,85.40
2022-07-27T07:52:43.973Z,86.00
2022-07-27T07:55:11.173Z,85.60
2022-07-27T07:57:38.667Z,85.80
2022-07-27T08:00:06.606Z,85.00
2022-07-27T08:02:48.654Z,83.10
2022-07-27T08:05:16.412Z,83.80
2022-07-27T08:07:43.749Z,84.90
2022-07-27T08:10:11.605Z,84.70
2022-07-27T08:12:39.722Z,85.40
2022-07-27T08:15:07.040Z,83.80
2022-07-27T08:17:33.723Z,83.30
2022-07-27T08:20:00.580Z,84.00
2022-07-27T08:22:27.781Z,82.90
2022-07-27T08:24:54.543Z,83.20
2022-07-27T08:27:21.330Z,83.10
2022-07-27T08:29:48.159Z,82.10
2022-07-27T08:32:18.954Z,82.80
2022-07-27T08:34:45.824Z,81.80
2022-07-27T08:37:15.540Z,82.50
2022-07-27T08:40:37.279Z,80.30
2022-07-27T08:42:30.070Z,79.30
2022-07-27T08:44:57.474Z,79.50
2022-07-27T08:47:24.463Z,78.90
2022-07-27T08:49:52.056Z,77.20
2022-07-27T08:52:20.125Z,77.30
2022-07-27T08:54:47.224Z,79.10
2022-07-27T08:57:14.223Z,78.20
2022-07-27T08:59:41.123Z,77.80
2022-07-27T09:02:10.937Z,76.20
2022-07-27T09:04:39.901Z,76.40
2022-07-27T09:07:06.911Z,73.00
2022-07-27T09:09:47.018Z,72.70
2022-07-27T09:12:14.043Z,72.30
2022-07-27T09:14:41.612Z,70.60
2022-07-27T09:20:19.267Z,71.80
2022-07-27T09:22:54.438Z,72.30
2022-07-27T09:25:44.829Z,71.90
2022-07-27T09:28:09.546Z,72.30
2022-07-27T09:30:41.213Z,70.40
2022-07-27T09:33:08.021Z,70.80
2022-07-27T09:35:35.624Z,73.00
2022-07-27T09:38:18.623Z,72.20
2022-07-27T09:40:46.662Z,72.50
2022-07-27T09:46:08.062Z,73.50
2022-07-27T09:48:35.984Z,72.50
2022-07-27T09:51:43.407Z,71.70
2022-07-27T09:53:54.423Z,69.70
2022-07-27T09:56:28.813Z,68.50
2022-07-27T09:59:02.689Z,69.10
2022-07-27T10:01:35.065Z,70.40
2022-07-27T10:04:05.953Z,70.20
2022-07-27T10:06:53.561Z,69.60
2022-07-27T10:09:21.030Z,69.40
2022-07-27T10:11:48.442Z,69.70
2022-07-27T10:14:15.829Z,68.70
2022-07-27T10:16:43.861Z,67.80
2022-07-27T10:19:34.294Z,67.40
2022-07-27T10:22:01.269Z,67.20
2022-07-27T10:24:31.608Z,66.50
2022-07-27T10:26:58.930Z,66.90
2022-07-27T10:29:25.716Z,66.50
2022-07-27T10:31:52.564Z,68.10
2022-07-27T10:34:38.302Z,68.30
2022-07-27T10:37:09.315Z,66.50
2022-07-27T10:39:43.200Z,64.90
2022-07-27T10:42:29.655Z,64.50
2022-07-27T10:45:04.920Z,64.20
2022-07-27T10:47:52.417Z,63.70
2022-07-27T10:50:24.023Z,62.00
2022-07-27T10:53:01.032Z,62.90
2022-07-27T10:55:37.017Z,62.70
2022-07-27T10:58:10.120Z,63.00
2022-07-27T11:00:54.661Z,63.10
2022-07-27T11:03:22.385Z,63.80
2022-07-27T11:06:01.286Z,63.60
2022-07-27T11:08:38.163Z,64.30
2022-07-27T11:11:09.096Z,63.40
2022-07-27T11:13:39.003Z,64.00
2022-07-27T11:19:04.975Z,64.40
2022-07-27T11:21:39.070Z,65.20
2022-07-27T11:24:13.829Z,63.80
2022-07-27T11:26:42.601Z,63.90
2022-07-27T11:29:11.685Z,64.90
2022-07-27T11:31:54.930Z,64.10
2022-07-27T11:34:30.392Z,63.80
2022-07-27T11:37:01.844Z,64.30
2022-07-27T11:42:18.790Z,62.70
2022-07-27T11:44:49.100Z,62.80
2022-07-27T11:47:17.255Z,63.20
2022-07-27T11:49:44.340Z,62.30
2022-07-27T11:52:11.344Z,62.40
2022-07-27T11:54:39.390Z,62.90
2022-07-27T11:57:08.233Z,63.70
2022-07-27T11:59:36.270Z,64.10
2022-07-27T12:02:06.440Z,64.80
2022-07-27T12:04:34.276Z,65.50
2022-07-27T12:07:10.770Z,66.20
2022-07-27T12:09:48.760Z,65.90
2022-07-27T12:12:19.835Z,66.60
2022-07-27T12:14:51.210Z,65.90
2022-07-27T12:17:27.770Z,66.00
2022-07-27T12:19:57.888Z,66.50
2022-07-27T12:22:35.688Z,65.50
2022-07-27T12:25:12.675Z,64.50
2022-07-27T12:27:53.705Z,64.70
2022-07-27T12:30:27.954Z,64.10
2022-07-27T12:32:55.720Z,64.60
2022-07-27T12:35:31.558Z,65.20
2022-07-27T12:38:05.846Z,64.60
2022-07-27T12:40:33.848Z,64.50
2022-07-27T12:43:05.754Z,65.00
2022-07-27T12:45:34.962Z,65.70
2022-07-27T12:48:09.541Z,64.50
2022-07-27T12:50:36.499Z,63.60
2022-07-27T12:53:05.346Z,63.10
2022-07-27T12:55:32.494Z,63.40
2022-07-27T12:57:59.435Z,63.60
2022-07-27T13:00:33.487Z,63.20
2022-07-27T13:03:01.941Z,62.80
2022-07-27T13:05:29.346Z,62.40
2022-07-27T13:07:57.061Z,62.80
2022-07-27T13:10:24.711Z,63.30
2022-07-27T13:12:52.303Z,62.10
2022-07-27T13:15:19.299Z,62.00
2022-07-27T13:17:47.340Z,61.20
2022-07-27T13:20:15.073Z,60.80
2022-07-27T13:22:42.449Z,60.70
2022-07-27T13:25:15.933Z,60.60
2022-07-27T13:27:44.672Z,61.40
2022-07-27T13:30:12.030Z,61.50
2022-07-27T13:32:39.141Z,63.00
2022-07-27T13:35:07.578Z,62.40
2022-07-27T13:37:34.723Z,62.90
2022-07-27T13:40:01.693Z,63.00
2022-07-27T13:42:28.530Z,63.70
2022-07-27T13:45:08.622Z,62.50
2022-07-27T13:47:36.690Z,62.90
2022-07-27T13:50:04.242Z,63.30
2022-07-27T13:52:31.033Z,63.40
2022-07-27T13:54:58.999Z,62.20
2022-07-27T13:57:25.933Z,62.60
2022-07-27T13:59:52.975Z,62.70
2022-07-27T14:02:22.842Z,61.60
2022-07-27T14:04:50.408Z,61.50
2022-07-27T14:07:18.156Z,62.40
2022-07-27T14:10:03.819Z,63.60
2022-07-27T14:12:30.655Z,63.30
2022-07-27T14:14:57.592Z,63.30
2022-07-27T14:17:24.635Z,62.60
2022-07-27T14:19:51.906Z,64.50
2022-07-27T14:22:18.733Z,65.10
2022-07-27T14:24:45.557Z,64.70
2022-07-27T14:27:12.335Z,64.70
2022-07-27T14:29:39.307Z,65.30
2022-07-27T14:32:06.385Z,65.70
2022-07-27T14:34:33.223Z,65.90
2022-07-27T14:37:00.063Z,66.60
2022-07-27T14:39:26.829Z,65.90
2022-07-27T14:41:53.752Z,66.90
2022-07-27T14:44:20.648Z,68.00
2022-07-27T14:46:47.712Z,68.60
2022-07-27T14:49:14.869Z,69.10
2022-07-27T14:51:41.820Z,69.10
2022-07-27T14:54:08.891Z,68.90
2022-07-27T14:56:36.691Z,69.10
2022-07-27T14:59:04.213Z,68.70
2022-07-27T15:01:34.667Z,68.70
2022-07-27T15:04:01.809Z,68.90
2022-07-27T15:06:28.895Z,68.50
2022-07-27T15:08:55.906Z,68.70
2022-07-27T15:11:22.703Z,68.30
2022-07-27T15:13:49.560Z,68.60
2022-07-27T15:16:16.806Z,67.70
2022-07-27T15:18:45.854Z,67.10
2022-07-27T15:21:14.154Z,67.30
2022-07-27T15:23:45.552Z,67.60
2022-07-27T15:26:13.188Z,68.40
2022-07-27T15:28:40.785Z,67.50
2022-07-27T15:31:07.747Z,67.90
2022-07-27T15:33:35.041Z,67.60
2022-07-27T15:36:02.033Z,67.20
2022-07-27T15:38:28.862Z,68.60
2022-07-27T15:40:55.699Z,68.70
2022-07-27T15:43:22.488Z,68.00
2022-07-27T15:45:51.054Z,68.00
2022-07-27T15:48:20.221Z,68.90
2022-07-27T15:50:50.695Z,67.90
2022-07-27T15:53:18.738Z,68.40
2022-07-27T15:55:54.990Z,68.30
2022-07-27T15:58:23.253Z,68.80
2022-07-27T16:00:52.308Z,68.70
2022-07-27T16:03:23.340Z,68.30
2022-07-27T16:05:52.527Z,68.90
2022-07-27T16:08:19.875Z,68.00
2022-07-27T16:10:48.334Z,68.60
2022-07-27T16:13:18.722Z,69.10
2022-07-27T16:16:04.844Z,69.50
2022-07-27T16:18:36.788Z,69.50
2022-07-27T16:21:05.979Z,70.40
2022-07-27T16:23:34.000Z,69.80
2022-07-27T16:26:05.508Z,69.20
2022-07-27T16:28:38.959Z,68.70
2022-07-27T16:31:08.088Z,69.10
2022-07-27T16:33:35.127Z,68.60
2022-07-27T16:36:03.343Z,68.60
2022-07-27T16:38:30.568Z,69.00
2022-07-27T16:40:57.397Z,68.50
2022-07-27T16:43:38.574Z,69.50
2022-07-27T16:46:10.468Z,70.00
2022-07-27T16:48:42.200Z,70.20
2022-07-27T16:51:13.536Z,69.70
2022-07-27T16:53:42.823Z,69.30
2022-07-27T16:56:10.166Z,69.70
2022-07-27T16:58:37.730Z,69.80
2022-07-27T17:01:07.777Z,69.60
2022-07-27T17:03:34.555Z,70.00
2022-07-27T17:06:05.899Z,70.40
2022-07-27T17:08:34.407Z,70.70
2022-07-27T17:11:02.413Z,70.80
2022-07-27T17:13:33.422Z,71.20
2022-07-27T17:16:02.250Z,71.60
2022-07-27T17:18:29.369Z,71.40
2022-07-27T17:20:56.288Z,73.00
2022-07-27T17:23:23.133Z,72.50
2022-07-27T17:25:49.961Z,73.10
2022-07-27T17:28:17.491Z,73.00
2022-07-27T17:30:44.402Z,73.30
2022-07-27T17:33:11.782Z,72.70
2022-07-27T17:35:38.817Z,72.70
2022-07-27T17:38:07.127Z,72.80
2022-07-27T17:40:35.794Z,73.60
2022-07-27T17:43:03.314Z,74.30
2022-07-27T17:45:31.295Z,73.80
2022-07-27T17:47:58.089Z,74.90
2022-07-27T17:50:25.089Z,74.20
2022-07-27T17:52:52.452Z,74.40
2022-07-27T17:55:19.415Z,75.60
2022-07-27T17:57:47.073Z,74.50
2022-07-27T18:00:14.414Z,74.20
2022-07-27T18:02:41.371Z,74.40
2022-07-27T18:05:08.555Z,74.90
2022-07-27T18:07:39.011Z,74.80
2022-07-27T18:10:08.262Z,74.90
2022-07-27T18:12:35.697Z,74.30
2022-07-27T18:15:21.306Z,74.60
2022-07-27T18:17:48.397Z,75.20
2022-07-27T18:20:15.390Z,74.70
2022-07-27T18:22:42.271Z,75.00
2022-07-27T18:25:09.615Z,75.20
2022-07-27T18:27:37.080Z,74.70
2022-07-27T18:30:04.711Z,75.80
2022-07-27T18:32:31.641Z,75.60
2022-07-27T18:34:58.498Z,77.00
2022-07-27T18:37:25.474Z,75.80
2022-07-27T18:39:52.533Z,75.80
2022-07-27T18:42:19.495Z,75.00
2022-07-27T18:44:46.484Z,76.00
2022-07-27T18:47:13.318Z,75.30
2022-07-27T18:49:40.710Z,76.60
2022-07-27T18:52:07.512Z,77.40
2022-07-27T18:54:34.442Z,76.80
2022-07-27T18:57:01.425Z,77.40
2022-07-27T18:59:28.290Z,77.60
2022-07-27T19:01:55.389Z,78.10
2022-07-27T19:04:24.590Z,78.50
2022-07-27T19:06:52.765Z,79.00
2022-07-27T19:09:19.539Z,79.10
2022-07-27T19:11:46.318Z,79.20
2022-07-27T19:14:13.657Z,79.60
2022-07-27T19:16:40.862Z,79.70
2022-07-27T19:19:14.206Z,80.00
2022-07-27T19:21:42.906Z,80.40
2022-07-27T19:24:11.185Z,80.20
2022-07-27T19:26:38.136Z,80.60
2022-07-27T19:29:05.045Z,80.90
2022-07-27T19:31:32.111Z,80.80
2022-07-27T19:33:59.042Z,80.20
2022-07-27T19:36:26.480Z,80.00
2022-07-27T19:38:53.576Z,80.30
2022-07-27T19:41:20.500Z,80.80
2022-07-27T19:43:47.387Z,80.10
2022-07-27T19:46:14.273Z,80.90
2022-07-27T19:48:41.172Z,80.60
2022-07-27T19:51:08.089Z,80.50
2022-07-27T19:53:35.737Z,80.90
2022-07-27T19:56:03.112Z,80.60
2022-07-27T19:58:31.333Z,80.30
2022-07-27T20:00:58.456Z,80.60
2022-07-27T20:03:25.701Z,81.20
2022-07-27T20:05:52.773Z,81.10
2022-07-27T20:08:19.795Z,80.80
2022-07-27T20:10:47.578Z,80.90
2022-07-27T20:13:14.733Z,81.50
2022-07-27T20:15:41.751Z,81.40
2022-07-27T20:18:08.594Z,81.50
2022-07-27T20:20:35.444Z,81.10
2022-07-27T20:23:02.319Z,81.10
2022-07-27T20:25:29.139Z,80.80
2022-07-27T20:27:55.895Z,81.00
2022-07-27T20:30:23.269Z,80.80
2022-07-27T20:32:50.555Z,81.20
2022-07-27T20:35:17.621Z,81.30
2022-07-27T20:37:45.312Z,81.60
2022-07-27T20:40:12.532Z,81.00
2022-07-27T20:42:41.035Z,82.00
2022-07-27T20:45:10.128Z,81.30
2022-07-27T20:47:38.206Z,81.50
2022-07-27T20:50:09.010Z,81.10
2022-07-27T20:52:38.867Z,81.70
2022-07-27T20:55:06.824Z,81.80
2022-07-27T20:57:35.895Z,81.70
2022-07-27T21:00:03.574Z,83.10
2022-07-27T21:02:30.561Z,82.10
2022-07-27T21:04:58.757Z,82.70
2022-07-27T21:07:26.096Z,83.10
2022-07-27T21:09:55.842Z,82.70
2022-07-27T21:12:23.259Z,82.80
2022-07-27T21:14:50.579Z,83.30
2022-07-27T21:17:17.593Z,83.50
2022-07-27T21:19:44.499Z,83.70
2022-07-27T21:22:11.797Z,83.10
2022-07-27T21:24:38.682Z,83.80
2022-07-27T21:27:05.496Z,83.80
2022-07-27T21:29:33.363Z,83.80
2022-07-27T21:32:00.176Z,84.00
2022-07-27T21:34:27.069Z,84.60
2022-07-27T21:36:54.038Z,84.50
2022-07-27T21:39:20.890Z,84.70
2022-07-27T21:41:47.782Z,85.40
2022-07-27T21:44:15.070Z,84.90
2022-07-27T21:46:42.275Z,85.50
2022-07-27T21:49:10.310Z,85.20
2022-07-27T21:51:37.998Z,85.80
2022-07-27T21:54:05.601Z,85.70
2022-07-27T21:56:41.846Z,86.30
2022-07-27T21:59:09.929Z,86.00
2022-07-27T22:01:36.999Z,86.30
2022-07-27T22:04:11.753Z,86.60
2022-07-27T22:06:39.813Z,87.00
2022-07-27T22:09:06.953Z,85.90
2022-07-27T22:11:33.850Z,86.70
2022-07-27T22:14:00.695Z,86.20
2022-07-27T22:16:28.275Z,86.40
2022-07-27T22:19:02.067Z,85.70
2022-07-27T22:21:28.921Z,85.80
2022-07-27T22:23:56.615Z,86.50
2022-07-27T22:26:23.406Z,86.80
2022-07-27T22:28:50.185Z,86.30
2022-07-27T22:31:22.605Z,86.20
2022-07-27T22:33:50.165Z,86.30
2022-07-27T22:36:16.992Z,86.20
2022-07-27T22:38:43.754Z,86.20
2022-07-27T22:41:10.825Z,86.60
2022-07-27T22:43:37.856Z,86.70
2022-07-27T22:46:05.307Z,86.10
2022-07-27T22:48:32.268Z,86.90
2022-07-27T22:50:59.200Z,86.70
2022-07-27T22:53:26.014Z,86.50
2022-07-27T22:55:53.760Z,86.20
2022-07-27T22:58:21.649Z,86.50
2022-07-27T23:00:49.069Z,86.80
2022-07-27T23:03:16.132Z,87.20
2022-07-27T23:05:43.225Z,87.00
2022-07-27T23:08:10.089Z,87.20
2022-07-27T23:10:46.071Z,87.30
2022-07-27T23:13:17.775Z,87.20
2022-07-27T23:15:45.544Z,87.50
2022-07-27T23:18:14.095Z,87.80
2022-07-27T23:20:45.116Z,87.80
2022-07-27T23:23:16.804Z,88.00
2022-07-27T23:25:47.228Z,88.40
2022-07-27T23:28:17.242Z,88.40
2022-07-27T23:30:44.787Z,88.80
2022-07-27T23:33:13.910Z,88.00
2022-07-27T23:35:40.701Z,88.90
2022-07-27T23:38:10.530Z,88.70
2022-07-27T23:40:37.454Z,88.80
2022-07-27T23:43:04.238Z,88.90
2022-07-27T23:45:34.725Z,89.10
2022-07-27T23:48:04.585Z,89.40
2022-07-27T23:50:32.154Z,89.50
2022-07-27T23:52:58.928Z,89.50
2022-07-27T23:55:28.319Z,90.10
2022-07-27T23:57:55.299Z,89.70
